createdAt,value
2022-08-03T00:00:27.554Z,94454.91
2022-08-03T00:02:54.243Z,94452.72
2022-08-03T00:05:21.170Z,94456.91
2022-08-03T00:07:48.466Z,94453.50
2022-08-03T00:10:16.249Z,94450.03
2022-08-03T00:12:42.906Z,94458.41
2022-08-03T00:15:11.283Z,94449.81
2022-08-03T00:17:52.431Z,94455.59
2022-08-03T00:20:21.474Z,94458.78
2022-08-03T00:22:48.459Z,94451.13
2022-08-03T00:25:15.150Z,94455.28
2022-08-03T00:27:41.795Z,94449.66
2022-08-03T00:30:08.744Z,94442.97
2022-08-03T00:32:35.398Z,94453.41
2022-08-03T00:35:08.421Z,94457.06
2022-08-03T00:37:40.633Z,94456.72
2022-08-03T00:40:10.541Z,94458.78
2022-08-03T00:42:50.767Z,94457.13
2022-08-03T00:45:18.671Z,94456.41
2022-08-03T00:47:45.832Z,94461.09
2022-08-03T00:50:13.123Z,94461.84
2022-08-03T00:52:40.392Z,94467.66
2022-08-03T00:55:07.256Z,94471.50
2022-08-03T00:57:34.079Z,94466.75
2022-08-03T01:00:00.972Z,94461.34
2022-08-03T01:02:28.762Z,94464.53
2022-08-03T01:04:56.182Z,94467.06
2022-08-03T01:07:44.012Z,94468.97
2022-08-03T01:10:19.848Z,94475.94
2022-08-03T01:14:00.909Z,94466.50
2022-08-03T01:16:20.537Z,94473.25
2022-08-03T01:18:58.114Z,94469.91
2022-08-03T01:21:32.409Z,94463.06
2022-08-03T01:24:30.711Z,94458.16
2022-08-03T01:27:05.893Z,94457.84
2022-08-03T01:29:52.685Z,94461.53
2022-08-03T01:32:58.358Z,94458.03
2022-08-03T01:35:17.887Z,94455.94
2022-08-03T01:37:58.220Z,94459.66
2022-08-03T01:40:26.079Z,94447.53
2022-08-03T01:42:54.911Z,94449.75
2022-08-03T01:45:22.338Z,94444.94
2022-08-03T01:47:50.019Z,94459.94
2022-08-03T01:50:19.654Z,94459.13
2022-08-03T01:52:46.437Z,94454.13
2022-08-03T01:55:13.633Z,94449.22
2022-08-03T01:58:04.734Z,94457.03
2022-08-03T02:00:27.983Z,94457.53
2022-08-03T02:02:55.582Z,94454.69
2022-08-03T02:05:23.002Z,94453.19
2022-08-03T02:07:50.080Z,94450.78
2022-08-03T02:10:34.677Z,94448.84
2022-08-03T02:13:04.362Z,94455.22
2022-08-03T02:15:32.610Z,94444.09
2022-08-03T02:18:00.617Z,94452.06
2022-08-03T02:20:28.003Z,94447.28
2022-08-03T02:22:54.836Z,94449.81
2022-08-03T02:25:21.569Z,94450.13
2022-08-03T02:27:53.294Z,94454.34
2022-08-03T02:30:20.943Z,94440.31
2022-08-03T02:32:55.082Z,94452.56
2022-08-03T02:35:23.395Z,94448.38
2022-08-03T02:37:53.427Z,94444.16
2022-08-03T02:40:23.158Z,94445.19
2022-08-03T02:42:51.928Z,94450.19
2022-08-03T02:45:20.210Z,94439.84
2022-08-03T02:47:53.248Z,94432.97
2022-08-03T02:50:21.624Z,94449.28
2022-08-03T02:52:50.006Z,94445.94
2022-08-03T02:55:17.570Z,94445.94
2022-08-03T02:57:45.068Z,94444.06
2022-08-03T03:00:12.989Z,94444.22
2022-08-03T03:02:47.004Z,94439.91
2022-08-03T03:05:55.823Z,94442.31
2022-08-03T03:08:02.202Z,94437.94
2022-08-03T03:10:29.022Z,94449.19
2022-08-03T03:12:57.133Z,94453.94
2022-08-03T03:15:24.802Z,94449.69
2022-08-03T03:17:52.058Z,94450.50
2022-08-03T03:20:29.690Z,94444.88
2022-08-03T03:22:59.341Z,94450.44
2022-08-03T03:25:26.361Z,94446.44
2022-08-03T03:27:53.304Z,94456.47
2022-08-03T03:30:19.985Z,94455.75
2022-08-03T03:32:46.623Z,94453.03
2022-08-03T03:35:14.427Z,94451.09
2022-08-03T03:37:41.110Z,94457.63
2022-08-03T03:40:09.166Z,94461.66
2022-08-03T03:42:36.225Z,94444.09
2022-08-03T03:45:09.485Z,94444.66
2022-08-03T03:47:36.332Z,94450.22
2022-08-03T03:50:07.068Z,94452.16
2022-08-03T03:52:34.578Z,94456.38
2022-08-03T03:55:01.855Z,94451.38
2022-08-03T03:57:29.403Z,94454.22
2022-08-03T03:59:56.284Z,94454.56
2022-08-03T04:02:22.995Z,94455.22
2022-08-03T04:05:08.407Z,94459.63
2022-08-03T04:08:17.892Z,94460.78
2022-08-03T04:11:01.165Z,94460.78
2022-08-03T04:13:34.479Z,94464.06
2022-08-03T04:16:02.195Z,94470.66
2022-08-03T04:18:31.897Z,94474.53
2022-08-03T04:21:03.591Z,94475.78
2022-08-03T04:23:34.470Z,94477.81
2022-08-03T04:26:02.888Z,94477.13
2022-08-03T04:28:31.994Z,94473.41
2022-08-03T04:31:04.087Z,94475.09
2022-08-03T04:33:35.013Z,94477.72
2022-08-03T04:36:06.143Z,94480.97
2022-08-03T04:38:36.903Z,94484.38
2022-08-03T04:41:04.032Z,94486.19
2022-08-03T04:43:32.450Z,94491.63
2022-08-03T04:45:59.919Z,94495.84
2022-08-03T04:48:26.945Z,94494.72
2022-08-03T04:50:54.231Z,94489.16
2022-08-03T04:53:21.542Z,94495.28
2022-08-03T04:55:48.543Z,94488.47
2022-08-03T04:58:15.271Z,94493.13
2022-08-03T05:00:43.060Z,94491.09
2022-08-03T05:03:23.770Z,94488.53
2022-08-03T05:05:52.914Z,94484.78
2022-08-03T05:08:20.677Z,94493.38
2022-08-03T05:10:55.689Z,94494.41
2022-08-03T05:13:26.165Z,94496.56
2022-08-03T05:15:53.025Z,94506.16
2022-08-03T05:18:20.006Z,94500.34
2022-08-03T05:20:46.877Z,94496.69
2022-08-03T05:23:13.671Z,94500.09
2022-08-03T05:25:40.594Z,94496.44
2022-08-03T05:28:16.784Z,94491.84
2022-08-03T05:30:43.589Z,94500.41
2022-08-03T05:33:11.143Z,94505.59
2022-08-03T05:35:56.156Z,94501.31
2022-08-03T05:38:28.729Z,94503.28
2022-08-03T05:41:21.924Z,94501.06
2022-08-03T05:43:48.006Z,94506.91
2022-08-03T05:46:15.076Z,94503.59
2022-08-03T05:48:42.617Z,94506.47
2022-08-03T05:51:11.845Z,94505.09
2022-08-03T05:53:42.915Z,94506.16
2022-08-03T05:56:14.639Z,94515.28
2022-08-03T05:58:48.711Z,94496.94
2022-08-03T06:01:17.160Z,94504.72
2022-08-03T06:03:45.198Z,94499.22
2022-08-03T06:06:12.220Z,94511.09
2022-08-03T06:08:39.908Z,94511.41
2022-08-03T06:11:06.880Z,94499.91
2022-08-03T06:13:33.859Z,94499.38
2022-08-03T06:16:00.660Z,94501.75
2022-08-03T06:18:27.440Z,94502.28
2022-08-03T06:20:55.029Z,94504.38
2022-08-03T06:23:22.091Z,94507.56
2022-08-03T06:25:49.128Z,94501.22
2022-08-03T06:31:03.709Z,94506.75
2022-08-03T06:34:30.651Z,94504.38
2022-08-03T06:36:20.624Z,94508.88
2022-08-03T06:38:47.571Z,94511.78
2022-08-03T06:41:14.302Z,94512.22
2022-08-03T06:44:03.274Z,94507.38
2022-08-03T06:46:27.848Z,94508.34
2022-08-03T06:48:56.806Z,94517.53
2022-08-03T06:52:04.357Z,94507.50
2022-08-03T06:54:11.057Z,94505.00
2022-08-03T06:56:38.203Z,94504.06
2022-08-03T06:59:05.144Z,94492.97
2022-08-03T07:01:31.936Z,94496.84
2022-08-03T07:03:58.874Z,94492.91
2022-08-03T07:06:25.720Z,94500.56
2022-08-03T07:08:55.420Z,94497.00
2022-08-03T07:11:24.490Z,94494.06
2022-08-03T07:13:51.223Z,94499.63
2022-08-03T07:16:18.045Z,94504.88
2022-08-03T07:18:44.835Z,94500.91
2022-08-03T07:21:12.953Z,94499.59
2022-08-03T07:23:39.823Z,94494.28
2022-08-03T07:26:06.652Z,94499.50
2022-08-03T07:28:33.610Z,94481.97
2022-08-03T07:31:00.415Z,94481.28
2022-08-03T07:33:27.260Z,94481.50
2022-08-03T07:35:54.010Z,94491.91
2022-08-03T07:38:21.178Z,94490.56
2022-08-03T07:40:48.367Z,94466.63
2022-08-03T07:43:15.193Z,94469.44
2022-08-03T07:45:42.060Z,94473.34
2022-08-03T07:48:12.077Z,94473.41
2022-08-03T07:50:39.624Z,94470.78
2022-08-03T07:53:06.459Z,94468.75
2022-08-03T07:55:33.398Z,94466.28
2022-08-03T07:58:12.641Z,94461.53
2022-08-03T08:00:39.714Z,94464.41
2022-08-03T08:03:06.789Z,94466.28
2022-08-03T08:05:34.033Z,94464.91
2022-08-03T08:08:01.803Z,94470.88
2022-08-03T08:10:29.051Z,94458.28
2022-08-03T08:12:56.581Z,94456.41
2022-08-03T08:15:23.871Z,94453.56
2022-08-03T08:17:58.822Z,94460.09
2022-08-03T08:20:34.852Z,94459.13
2022-08-03T08:23:20.856Z,94459.22
2022-08-03T08:25:56.475Z,94459.19
2022-08-03T08:28:31.677Z,94455.03
2022-08-03T08:30:59.911Z,94448.38
2022-08-03T08:33:37.224Z,94442.09
2022-08-03T08:36:14.807Z,94441.16
2022-08-03T08:38:42.834Z,94440.16
2022-08-03T08:41:11.334Z,94445.88
2022-08-03T08:43:38.365Z,94446.16
2022-08-03T08:46:08.438Z,94442.34
2022-08-03T08:48:37.588Z,94439.00
2022-08-03T08:51:04.831Z,94431.72
2022-08-03T08:53:33.227Z,94440.88
2022-08-03T08:56:01.314Z,94434.63
2022-08-03T08:58:37.291Z,94435.91
2022-08-03T09:01:05.693Z,94416.16
2022-08-03T09:03:34.558Z,94424.25
2022-08-03T09:06:02.585Z,94426.63
2022-08-03T09:08:31.104Z,94421.38
2022-08-03T09:10:58.318Z,94414.91
2022-08-03T09:13:25.383Z,94413.84
2022-08-03T09:16:24.710Z,94413.53
2022-08-03T09:18:54.936Z,94397.59
2022-08-03T09:21:33.992Z,94407.66
2022-08-03T09:24:05.139Z,94398.13
2022-08-03T09:26:35.748Z,94396.25
2022-08-03T09:29:14.013Z,94384.44
2022-08-03T09:31:45.564Z,94396.34
2022-08-03T09:34:17.823Z,94387.31
2022-08-03T09:36:51.683Z,94405.34
2022-08-03T09:39:40.612Z,94401.03
2022-08-03T09:42:14.818Z,94393.00
2022-08-03T09:44:48.120Z,94404.78
2022-08-03T09:47:17.442Z,94393.03
2022-08-03T09:50:15.845Z,94388.97
2022-08-03T09:52:49.953Z,94389.91
2022-08-03T09:56:31.100Z,94381.72
2022-08-03T09:58:10.873Z,94383.94
2022-08-03T10:01:07.846Z,94379.50
2022-08-03T10:04:04.264Z,94374.44
2022-08-03T10:06:31.649Z,94372.16
2022-08-03T10:09:10.732Z,94365.41
2022-08-03T10:11:41.842Z,94361.50
2022-08-03T10:14:19.679Z,94360.91
2022-08-03T10:16:47.527Z,94365.47
2022-08-03T10:19:15.863Z,94365.16
2022-08-03T10:21:48.391Z,94354.69
2022-08-03T10:24:17.628Z,94352.22
2022-08-03T10:26:49.803Z,94347.31
2022-08-03T10:29:28.611Z,94347.66
2022-08-03T10:31:59.033Z,94343.78
2022-08-03T10:34:35.642Z,94348.97
2022-08-03T10:37:05.547Z,94337.53
2022-08-03T10:39:32.366Z,94337.00
2022-08-03T10:41:59.979Z,94331.72
2022-08-03T10:44:33.910Z,94326.91
2022-08-03T10:47:01.190Z,94324.22
2022-08-03T10:49:34.434Z,94334.31
2022-08-03T10:52:11.199Z,94337.09
2022-08-03T10:55:10.657Z,94333.22
2022-08-03T10:57:58.419Z,94325.19
2022-08-03T11:00:27.582Z,94314.09
2022-08-03T11:03:11.542Z,94321.94
2022-08-03T11:05:47.281Z,94320.56
2022-08-03T11:08:26.378Z,94316.53
2022-08-03T11:10:55.606Z,94319.75
2022-08-03T11:13:25.209Z,94295.19
2022-08-03T11:16:00.123Z,94307.25
2022-08-03T11:18:30.142Z,94314.25
2022-08-03T11:21:00.731Z,94309.50
2022-08-03T11:24:02.759Z,94309.53
2022-08-03T11:26:28.502Z,94302.22
2022-08-03T11:29:28.150Z,94306.69
2022-08-03T11:31:55.142Z,94303.53
2022-08-03T11:34:21.991Z,94296.47
2022-08-03T11:37:21.843Z,94302.56
2022-08-03T11:39:51.425Z,94294.50
2022-08-03T11:42:24.100Z,94292.13
2022-08-03T11:44:52.630Z,94286.56
2022-08-03T11:47:21.049Z,94281.00
2022-08-03T11:49:49.502Z,94289.03
2022-08-03T11:52:26.954Z,94292.94
2022-08-03T11:54:57.115Z,94293.31
2022-08-03T11:59:01.335Z,94286.66
2022-08-03T12:00:34.328Z,94283.63
2022-08-03T12:03:12.202Z,94274.66
2022-08-03T12:05:40.438Z,94277.75
2022-08-03T12:08:08.114Z,94273.94
2022-08-03T12:10:35.499Z,94275.88
2022-08-03T12:13:56.906Z,94271.97
2022-08-03T12:15:57.616Z,94278.31
2022-08-03T12:18:24.728Z,94271.53
2022-08-03T12:20:52.811Z,94271.22
2022-08-03T12:23:20.193Z,94264.47
2022-08-03T12:25:47.951Z,94258.84
2022-08-03T12:28:28.390Z,94266.38
2022-08-03T12:31:09.539Z,94267.25
2022-08-03T12:34:00.490Z,94258.88
2022-08-03T12:36:28.137Z,94257.81
2022-08-03T12:38:57.704Z,94262.44
2022-08-03T12:41:30.352Z,94249.09
2022-08-03T12:43:58.031Z,94253.25
2022-08-03T12:46:31.159Z,94253.50
2022-08-03T12:49:02.210Z,94243.72
2022-08-03T12:51:30.533Z,94241.34
2022-08-03T12:53:58.782Z,94244.22
2022-08-03T12:56:25.851Z,94243.34
2022-08-03T12:58:53.340Z,94239.16
2022-08-03T13:01:22.769Z,94235.72
2022-08-03T13:03:53.003Z,94236.28
2022-08-03T13:06:24.960Z,94228.66
2022-08-03T13:09:05.867Z,94225.72
2022-08-03T13:11:57.849Z,94228.13
2022-08-03T13:14:20.455Z,94233.00
2022-08-03T13:16:50.727Z,94224.94
2022-08-03T13:19:17.630Z,94226.66
2022-08-03T13:22:01.931Z,94231.03
2022-08-03T13:24:32.103Z,94215.63
2022-08-03T13:26:59.987Z,94222.03
2022-08-03T13:29:26.777Z,94214.28
2022-08-03T13:31:53.693Z,94210.56
2022-08-03T13:34:23.660Z,94214.81
2022-08-03T13:37:09.226Z,94210.47
2022-08-03T13:39:48.225Z,94209.13
2022-08-03T13:42:23.431Z,94204.25
2022-08-03T13:44:50.265Z,94211.06
2022-08-03T13:47:17.322Z,94205.09
2022-08-03T13:50:00.249Z,94210.09
2022-08-03T13:52:30.466Z,94204.53
2022-08-03T13:54:57.324Z,94200.13
2022-08-03T13:58:02.348Z,94202.88
2022-08-03T14:00:11.536Z,94198.78
2022-08-03T14:02:38.422Z,94194.72
2022-08-03T14:05:05.721Z,94192.28
2022-08-03T14:07:32.534Z,94192.47
2022-08-03T14:09:59.302Z,94186.09
2022-08-03T14:12:26.156Z,94190.06
2022-08-03T14:14:52.968Z,94186.78
2022-08-03T14:17:23.053Z,94181.91
2022-08-03T14:19:53.461Z,94177.72
2022-08-03T14:22:21.570Z,94183.56
2022-08-03T14:24:49.150Z,94180.09
2022-08-03T14:27:16.571Z,94177.84
2022-08-03T14:29:43.620Z,94180.31
2022-08-03T14:32:13.187Z,94173.75
2022-08-03T14:34:41.064Z,94172.25
2022-08-03T14:37:08.154Z,94179.34
2022-08-03T14:42:21.866Z,94171.78
2022-08-03T14:44:48.685Z,94175.94
2022-08-03T14:47:15.564Z,94169.31
2022-08-03T14:50:30.062Z,94164.84
2022-08-03T14:52:29.781Z,94168.47
2022-08-03T14:54:56.774Z,94157.78
2022-08-03T14:57:23.560Z,94153.91
2022-08-03T14:59:56.793Z,94159.75
2022-08-03T15:02:25.489Z,94164.78
2022-08-03T15:04:52.911Z,94162.66
2022-08-03T15:07:20.969Z,94152.22
2022-08-03T15:09:48.039Z,94143.16
2022-08-03T15:12:14.771Z,94148.97
2022-08-03T15:14:41.629Z,94147.19
2022-08-03T15:17:08.620Z,94153.53
2022-08-03T15:20:01.640Z,94150.47
2022-08-03T15:22:24.889Z,94158.56
2022-08-03T15:24:52.427Z,94158.91
2022-08-03T15:27:19.583Z,94158.78
2022-08-03T15:30:05.012Z,94146.28
2022-08-03T15:32:35.963Z,94143.56
2022-08-03T15:35:02.911Z,94146.41
2022-08-03T15:37:29.674Z,94153.06
2022-08-03T15:40:00.150Z,94139.78
2022-08-03T15:42:31.380Z,94148.31
2022-08-03T15:44:58.515Z,94148.06
2022-08-03T15:47:25.813Z,94146.41
2022-08-03T15:49:52.683Z,94144.72
2022-08-03T15:52:19.513Z,94136.91
2022-08-03T15:54:46.264Z,94135.34
2022-08-03T15:57:13.080Z,94132.53
2022-08-03T15:59:39.900Z,94139.28
2022-08-03T16:02:06.740Z,94132.91
2022-08-03T16:04:33.823Z,94137.72
2022-08-03T16:07:00.621Z,94132.72
2022-08-03T16:09:42.239Z,94137.22
2022-08-03T16:12:15.695Z,94136.31
2022-08-03T16:14:52.417Z,94135.22
2022-08-03T16:17:20.632Z,94132.97
2022-08-03T16:19:47.813Z,94123.44
2022-08-03T16:22:14.720Z,94128.69
2022-08-03T16:24:41.642Z,94133.53
2022-08-03T16:27:36.642Z,94127.59
2022-08-03T16:29:55.474Z,94112.78
2022-08-03T16:32:22.330Z,94127.81
2022-08-03T16:34:49.222Z,94124.38
2022-08-03T16:37:37.605Z,94127.53
2022-08-03T16:40:05.104Z,94126.56
2022-08-03T16:42:31.983Z,94120.13
2022-08-03T16:44:58.761Z,94136.28
2022-08-03T16:47:25.552Z,94127.50
2022-08-03T16:49:54.940Z,94136.34
2022-08-03T16:52:23.382Z,94132.88
2022-08-03T16:54:52.955Z,94127.50
2022-08-03T16:57:56.461Z,94136.81
2022-08-03T17:00:10.402Z,94141.47
2022-08-03T17:02:37.656Z,94140.69
2022-08-03T17:05:04.834Z,94141.16
2022-08-03T17:07:31.625Z,94144.94
2022-08-03T17:09:58.462Z,94144.59
2022-08-03T17:12:26.780Z,94144.75
2022-08-03T17:14:54.504Z,94150.91
2022-08-03T17:17:47.684Z,94150.66
2022-08-03T17:20:19.117Z,94153.19
2022-08-03T17:22:56.825Z,94155.50
2022-08-03T17:25:39.807Z,94156.50
2022-08-03T17:28:48.359Z,94177.22
2022-08-03T17:31:23.122Z,94176.81
2022-08-03T17:34:00.881Z,94166.94
2022-08-03T17:36:47.516Z,94170.97
2022-08-03T17:39:16.703Z,94177.56
2022-08-03T17:41:49.902Z,94169.53
2022-08-03T17:44:30.129Z,94173.81
2022-08-03T17:47:06.562Z,94175.88
2022-08-03T17:49:39.776Z,94176.09
2022-08-03T17:52:27.684Z,94179.94
2022-08-03T17:55:56.941Z,94184.41
2022-08-03T17:58:02.185Z,94186.38
2022-08-03T18:00:48.057Z,94181.50
2022-08-03T18:03:27.688Z,94181.28
2022-08-03T18:06:12.339Z,94190.03
2022-08-03T18:08:49.040Z,94182.09
2022-08-03T18:11:21.856Z,94193.97
2022-08-03T18:14:32.419Z,94204.47
2022-08-03T18:17:15.710Z,94203.59
2022-08-03T18:20:03.451Z,94203.41
2022-08-03T18:22:32.322Z,94206.63
2022-08-03T18:27:51.000Z,94205.66
2022-08-03T18:30:17.818Z,94213.41
2022-08-03T18:33:00.922Z,94219.63
2022-08-03T18:35:53.955Z,94216.03
2022-08-03T18:38:16.873Z,94219.16
2022-08-03T18:40:48.567Z,94222.00
2022-08-03T18:43:17.617Z,94222.19
2022-08-03T18:45:56.241Z,94227.41
2022-08-03T18:48:27.546Z,94230.72
2022-08-03T18:51:06.958Z,94235.78
2022-08-03T18:54:04.102Z,94242.44
2022-08-03T18:56:54.689Z,94249.81
2022-08-03T18:59:56.781Z,94242.63
2022-08-03T19:02:35.995Z,94247.72
2022-08-03T19:05:08.609Z,94252.19
2022-08-03T19:07:38.352Z,94256.66
2022-08-03T19:10:10.861Z,94247.44
2022-08-03T19:12:46.422Z,94246.28
2022-08-03T19:15:15.539Z,94252.28
2022-08-03T19:17:52.639Z,94259.59
2022-08-03T19:20:25.530Z,94252.16
2022-08-03T19:22:55.731Z,94266.59
2022-08-03T19:25:34.494Z,94262.72
2022-08-03T19:28:04.243Z,94257.28
2022-08-03T19:30:39.864Z,94266.16
2022-08-03T19:33:12.101Z,94269.06
2022-08-03T19:35:51.561Z,94271.72
2022-08-03T19:38:28.335Z,94276.16
2022-08-03T19:41:02.667Z,94275.34
2022-08-03T19:43:52.714Z,94273.25
2022-08-03T19:46:21.029Z,94278.88
2022-08-03T19:48:55.071Z,94285.44
2022-08-03T19:51:59.048Z,94284.66
2022-08-03T19:54:14.732Z,94280.00
2022-08-03T19:56:44.970Z,94285.47
2022-08-03T19:59:16.272Z,94281.78
2022-08-03T20:01:50.887Z,94281.78
2022-08-03T20:04:18.083Z,94288.66
2022-08-03T20:06:49.623Z,94287.75
2022-08-03T20:09:17.012Z,94286.59
2022-08-03T20:11:45.192Z,94286.59
2022-08-03T20:14:13.209Z,94293.09
2022-08-03T20:16:48.521Z,94285.13
2022-08-03T20:19:16.892Z,94289.34
2022-08-03T20:21:48.694Z,94291.44
2022-08-03T20:24:30.249Z,94294.38
2022-08-03T20:27:01.577Z,94292.22
2022-08-03T20:29:42.801Z,94296.34
2022-08-03T20:32:24.467Z,94293.25
2022-08-03T20:34:52.086Z,94290.81
2022-08-03T20:37:19.782Z,94289.66
2022-08-03T20:39:49.415Z,94292.16
2022-08-03T20:42:21.640Z,94276.34
2022-08-03T20:45:04.522Z,94289.91
2022-08-03T20:47:35.549Z,94291.06
2022-08-03T20:50:04.601Z,94291.34
2022-08-03T20:52:49.512Z,94294.41
2022-08-03T20:55:18.044Z,94297.97
2022-08-03T20:57:51.617Z,94291.19
2022-08-03T21:00:21.929Z,94300.59
2022-08-03T21:02:49.287Z,94299.00
2022-08-03T21:05:16.192Z,94297.53
2022-08-03T21:08:05.993Z,94294.91
2022-08-03T21:10:38.006Z,94298.59
2022-08-03T21:12:57.900Z,94220.19
2022-08-03T21:13:18.618Z,94295.53
2022-08-03T21:16:12.099Z,94292.31
2022-08-03T21:18:40.792Z,94302.66
2022-08-03T21:21:08.518Z,94297.59
2022-08-03T21:23:47.813Z,94295.75
2022-08-03T21:26:17.536Z,94293.91
2022-08-03T21:28:46.263Z,94308.13
2022-08-03T21:31:13.806Z,94302.81
2022-08-03T21:33:41.080Z,94303.16
2022-08-03T21:36:16.991Z,94309.22
2022-08-03T21:38:55.842Z,94310.81
2022-08-03T21:41:27.631Z,94304.50
2022-08-03T21:43:54.334Z,94308.22
2022-08-03T21:46:22.352Z,94315.84
2022-08-03T21:48:55.749Z,94311.91
2022-08-03T21:51:25.968Z,94305.84
2022-08-03T21:54:02.416Z,94306.63
2022-08-03T21:56:35.497Z,94310.03
2022-08-03T21:59:07.786Z,94310.84
2022-08-03T22:01:35.965Z,94312.41
2022-08-03T22:04:06.949Z,94310.03
2022-08-03T22:06:33.853Z,94317.16
2022-08-03T22:09:00.574Z,94317.94
2022-08-03T22:11:27.530Z,94315.03
2022-08-03T22:13:54.173Z,94315.06
2022-08-03T22:16:21.460Z,94319.78
2022-08-03T22:18:48.193Z,94316.59
2022-08-03T22:21:16.552Z,94316.88
2022-08-03T22:23:56.601Z,94317.16
2022-08-03T22:26:35.266Z,94320.00
2022-08-03T22:29:07.173Z,94322.41
2022-08-03T22:31:58.315Z,94322.94
2022-08-03T22:34:26.454Z,94321.06
2022-08-03T22:36:56.577Z,94333.69
2022-08-03T22:39:28.234Z,94331.88
2022-08-03T22:41:56.944Z,94332.63
2022-08-03T22:44:24.287Z,94331.34
2022-08-03T22:46:51.053Z,94327.66
2022-08-03T22:49:18.513Z,94329.97
2022-08-03T22:51:45.649Z,94331.28
2022-08-03T22:54:12.313Z,94335.00
2022-08-03T22:56:41.523Z,94324.41
2022-08-03T22:59:39.932Z,94335.69
2022-08-03T23:01:58.557Z,94328.13
2022-08-03T23:04:25.856Z,94338.31
2022-08-03T23:06:56.581Z,94338.31
2022-08-03T23:09:24.340Z,94331.97
2022-08-03T23:11:53.504Z,94337.84
2022-08-03T23:14:20.725Z,94342.00
2022-08-03T23:16:48.009Z,94335.97
2022-08-03T23:19:16.977Z,94333.88
2022-08-03T23:22:02.557Z,94343.78
2022-08-03T23:24:31.079Z,94341.50
2022-08-03T23:26:58.878Z,94332.75
2022-08-03T23:29:26.420Z,94348.50
2022-08-03T23:31:53.869Z,94336.66
2022-08-03T23:34:40.249Z,94340.38
2022-08-03T23:37:06.899Z,94335.81
2022-08-03T23:39:35.073Z,94333.44
2022-08-03T23:42:03.003Z,94334.66
2022-08-03T23:44:30.880Z,94326.81
2022-08-03T23:46:57.606Z,94325.25
2022-08-03T23:49:24.218Z,94331.25
2022-08-03T23:52:03.962Z,94323.59
2022-08-03T23:54:48.984Z,94334.69
2022-08-03T23:57:21.707Z,94324.66
